Time;durP1;ratioP1;P1;durP2;ratioP2;P2;SDS_P1;SDS_P2;PMS_P1;PMS_P2;Temp;Humidity;BMP_temperature;BMP_pressure;BME280_temperature;BME280_humidity;BME280_pressure;Samples;Min_cycle;Max_cycle;Signal;HPM_P1;HPM_P2
2022/05/10 00:00:32;;;;;;;16.40;8.18;;;;;;;;;;5031944;28;95561;-73
2022/05/10 00:02:59;;;;;;;18.65;8.45;;;;;;;;;;5031996;28;93199;-73
2022/05/10 00:05:32;;;;;;;15.57;8.95;;;;;;;;;;5033340;27;93051;-73
2022/05/10 00:08:00;;;;;;;30.55;8.68;;;;;;;;;;5036439;28;93959;-73
2022/05/10 00:10:26;;;;;;;16.40;9.50;;;;;;;;;;5035366;28;94441;-73
2022/05/10 00:12:53;;;;;;;19.65;9.52;;;;;;;;;;5036380;28;93992;-73
2022/05/10 00:15:19;;;;;;;17.25;9.18;;;;;;;;;;5039348;27;93018;-73
2022/05/10 00:17:47;;;;;;;17.08;9.82;;;;;;;;;;5034926;28;92472;-73
2022/05/10 00:20:18;;;;;;;14.75;10.43;;;;;;;;;;5036175;28;93994;-73
2022/05/10 00:22:44;;;;;;;15.30;10.60;;;;;;;;;;5032610;28;96945;-73
2022/05/10 00:25:12;;;;;;;19.17;10.45;;;;;;;;;;5034382;27;92552;-73
2022/05/10 00:27:38;;;;;;;14.77;10.77;;;;;;;;;;5035076;28;94879;-73
2022/05/10 00:30:05;;;;;;;14.68;10.60;;;;;;;;;;5033882;28;92464;-73
2022/05/10 00:32:34;;;;;;;12.93;9.98;;;;;;;;;;5034860;28;92510;-73
2022/05/10 00:35:02;;;;;;;18.17;11.02;;;;;;;;;;5034589;28;93429;-73
2022/05/10 00:37:31;;;;;;;17.88;9.82;;;;;;;;;;5037381;28;93988;-73
2022/05/10 00:39:57;;;;;;;16.85;10.20;;;;;;;;;;5036193;28;93909;-73
2022/05/10 00:42:47;;;;;;;10.90;9.23;;;;;;;;;;5034448;28;93539;-73
2022/05/10 00:45:15;;;;;;;13.25;9.77;;;;;;;;;;4996420;28;93242;-73
2022/05/10 00:47:51;;;;;;;11.73;9.00;;;;;;;;;;5033568;28;94901;-73
2022/05/10 00:50:24;;;;;;;11.75;10.30;;;;;;;;;;5035453;28;94143;-73
2022/05/10 00:52:53;;;;;;;17.17;9.85;;;;;;;;;;5034276;28;92430;-73
2022/05/10 00:55:23;;;;;;;12.50;9.35;;;;;;;;;;5035607;28;93994;-73
2022/05/10 00:57:54;;;;;;;14.73;10.38;;;;;;;;;;5034893;28;94438;-73
2022/05/10 01:00:21;;;;;;;17.33;9.48;;;;;;;;;;5038122;28;92873;-73
2022/05/10 01:02:56;;;;;;;15.20;9.05;;;;;;;;;;5035039;28;93200;-73
2022/05/10 01:05:26;;;;;;;13.18;9.75;;;;;;;;;;5034782;28;91640;-73
2022/05/10 01:08:14;;;;;;;19.95;9.93;;;;;;;;;;5035378;28;93199;-73
2022/05/10 01:10:44;;;;;;;15.38;9.48;;;;;;;;;;5035016;28;94413;-73
2022/05/10 01:13:16;;;;;;;12.57;10.00;;;;;;;;;;5032556;28;95250;-73
2022/05/10 01:15:53;;;;;;;12.63;9.83;;;;;;;;;;5033783;28;95627;-73
2022/05/10 01:18:22;;;;;;;14.60;9.60;;;;;;;;;;5034438;28;93174;-73
2022/05/10 01:20:49;;;;;;;11.95;9.23;;;;;;;;;;5034279;28;92513;-73
2022/05/10 01:23:33;;;;;;;16.35;10.43;;;;;;;;;;5037537;28;93361;-73
2022/05/10 01:26:14;;;;;;;10.80;9.43;;;;;;;;;;5033658;28;92449;-73
2022/05/10 01:28:49;;;;;;;16.35;9.57;;;;;;;;;;5034575;28;93886;-73
2022/05/10 01:31:24;;;;;;;13.40;9.35;;;;;;;;;;5035338;28;93373;-73
2022/05/10 01:33:53;;;;;;;16.07;9.73;;;;;;;;;;5034174;28;92663;-73
2022/05/10 01:36:38;;;;;;;14.57;10.77;;;;;;;;;;5034728;28;92461;-73
2022/05/10 01:39:04;;;;;;;18.88;10.00;;;;;;;;;;5031464;27;96123;-73
2022/05/10 01:41:35;;;;;;;12.32;9.30;;;;;;;;;;5033020;28;92473;-73
2022/05/10 01:44:11;;;;;;;20.48;10.75;;;;;;;;;;5037015;28;92998;-73
2022/05/10 01:46:37;;;;;;;23.33;12.50;;;;;;;;;;5033809;28;92552;-73
2022/05/10 01:49:16;;;;;;;17.50;10.88;;;;;;;;;;5033350;28;93963;-73
2022/05/10 01:51:49;;;;;;;18.15;10.65;;;;;;;;;;5033162;28;94493;-73
2022/05/10 01:54:32;;;;;;;18.50;10.70;;;;;;;;;;5033453;28;92509;-73
2022/05/10 01:56:58;;;;;;;22.17;11.00;;;;;;;;;;5034535;28;94002;-73
2022/05/10 01:59:25;;;;;;;20.50;11.23;;;;;;;;;;5033282;27;93461;-73
2022/05/10 02:01:53;;;;;;;16.55;10.80;;;;;;;;;;5032714;27;92477;-73
2022/05/10 02:04:23;;;;;;;15.93;11.07;;;;;;;;;;5032468;27;94875;-73
2022/05/10 02:06:52;;;;;;;16.58;11.20;;;;;;;;;;5036816;28;94078;-73
2022/05/10 02:09:22;;;;;;;20.00;11.77;;;;;;;;;;5033185;28;94004;-73
2022/05/10 02:11:56;;;;;;;13.20;11.43;;;;;;;;;;5033449;28;94393;-73
2022/05/10 02:14:24;;;;;;;18.13;12.20;;;;;;;;;;5033064;28;92485;-73
2022/05/10 02:16:56;;;;;;;15.93;11.75;;;;;;;;;;5032854;28;93980;-73
2022/05/10 02:19:27;;;;;;;14.90;11.30;;;;;;;;;;5033244;28;93169;-73
2022/05/10 02:21:55;;;;;;;17.27;12.07;;;;;;;;;;5034106;28;91701;-73
2022/05/10 02:24:23;;;;;;;18.55;11.63;;;;;;;;;;5031639;28;92906;-73
2022/05/10 02:26:52;;;;;;;17.98;11.68;;;;;;;;;;5033102;28;93373;-73
2022/05/10 02:29:33;;;;;;;17.70;12.43;;;;;;;;;;5033447;28;95588;-73
2022/05/10 02:34:52;;;;;;;18.27;13.10;;;;;;;;;;5033539;28;92477;-73
2022/05/10 02:37:18;;;;;;;17.65;13.30;;;;;;;;;;5032715;28;94334;-73
2022/05/10 02:39:45;;;;;;;19.73;13.73;;;;;;;;;;5032878;28;93348;-73
2022/05/10 02:42:12;;;;;;;20.52;13.38;;;;;;;;;;5032783;28;92674;-73
2022/05/10 02:44:39;;;;;;;16.67;12.70;;;;;;;;;;5031881;28;93238;-73
2022/05/10 02:47:06;;;;;;;19.35;13.55;;;;;;;;;;5033176;28;93043;-73
2022/05/10 02:49:34;;;;;;;18.35;13.48;;;;;;;;;;5032701;28;93234;-73
2022/05/10 02:52:01;;;;;;;15.57;12.57;;;;;;;;;;5034682;28;93345;-73
2022/05/10 02:54:27;;;;;;;26.15;13.35;;;;;;;;;;5030851;28;94882;-73
2022/05/10 02:56:54;;;;;;;17.98;13.45;;;;;;;;;;5032880;28;96332;-73
2022/05/10 02:59:22;;;;;;;21.02;14.50;;;;;;;;;;5031884;28;93655;-73
2022/05/10 03:01:57;;;;;;;25.45;14.65;;;;;;;;;;5032807;28;92459;-73
2022/05/10 03:04:23;;;;;;;23.48;14.20;;;;;;;;;;5031929;28;94060;-73
2022/05/10 03:06:50;;;;;;;21.23;14.57;;;;;;;;;;5032440;28;93306;-73
2022/05/10 03:09:16;;;;;;;23.75;14.45;;;;;;;;;;5032328;28;92927;-73
2022/05/10 03:11:43;;;;;;;19.95;14.75;;;;;;;;;;5031933;28;93192;-73
2022/05/10 03:14:10;;;;;;;20.85;14.73;;;;;;;;;;5034958;28;92569;-73
2022/05/10 03:16:36;;;;;;;19.83;13.77;;;;;;;;;;5031874;28;93339;-73
2022/05/10 03:19:04;;;;;;;20.70;14.60;;;;;;;;;;5029839;28;95786;-73
2022/05/10 03:21:30;;;;;;;20.70;15.30;;;;;;;;;;5032146;28;92465;-73
2022/05/10 03:23:57;;;;;;;22.92;15.57;;;;;;;;;;5031627;28;93097;-73
2022/05/10 03:26:25;;;;;;;24.05;14.50;;;;;;;;;;5031579;28;94156;-73
2022/05/10 03:28:52;;;;;;;27.98;15.95;;;;;;;;;;5032392;28;92505;-73
2022/05/10 03:31:20;;;;;;;22.00;15.30;;;;;;;;;;5031711;28;93188;-73
2022/05/10 03:34:53;;;;;;;28.17;15.35;;;;;;;;;;5031415;28;94138;-73
2022/05/10 03:36:33;;;;;;;20.02;14.85;;;;;;;;;;5034812;28;91787;-73
2022/05/10 03:38:59;;;;;;;21.83;15.35;;;;;;;;;;5031180;28;93263;-73
2022/05/10 03:41:26;;;;;;;27.83;16.73;;;;;;;;;;5030711;28;94181;-73
2022/05/10 03:43:53;;;;;;;21.67;16.15;;;;;;;;;;5029705;28;95123;-73
2022/05/10 03:46:19;;;;;;;23.40;16.55;;;;;;;;;;5031496;28;92964;-73
2022/05/10 03:48:48;;;;;;;35.78;17.60;;;;;;;;;;5031286;28;92573;-73
2022/05/10 03:51:14;;;;;;;26.70;17.77;;;;;;;;;;5032132;28;94824;-73
2022/05/10 03:53:41;;;;;;;30.05;17.70;;;;;;;;;;5031217;28;94896;-73
2022/05/10 03:56:08;;;;;;;25.38;17.13;;;;;;;;;;5035146;28;92914;-73
2022/05/10 03:58:34;;;;;;;30.73;18.05;;;;;;;;;;5031594;28;93164;-73
2022/05/10 04:01:01;;;;;;;28.85;17.67;;;;;;;;;;5031565;28;91709;-73
2022/05/10 04:03:27;;;;;;;25.33;17.95;;;;;;;;;;5031561;28;93203;-73
2022/05/10 04:05:53;;;;;;;25.42;17.70;;;;;;;;;;5031824;28;94872;-73
2022/05/10 04:08:20;;;;;;;30.48;18.77;;;;;;;;;;5029287;28;94860;-73
2022/05/10 04:10:46;;;;;;;22.75;15.25;;;;;;;;;;5031600;28;96337;-73
2022/05/10 04:13:12;;;;;;;22.23;15.88;;;;;;;;;;5031339;28;94420;-73
2022/05/10 04:15:39;;;;;;;28.35;18.38;;;;;;;;;;5030189;28;92527;-73
2022/05/10 04:18:05;;;;;;;24.63;18.80;;;;;;;;;;5034800;28;94050;-73
2022/05/10 04:20:32;;;;;;;29.10;18.42;;;;;;;;;;5030671;27;92448;-72
2022/05/10 04:22:59;;;;;;;26.42;18.40;;;;;;;;;;5030985;28;94285;-73
2022/05/10 04:25:25;;;;;;;24.05;17.83;;;;;;;;;;5031477;28;92740;-73
2022/05/10 04:27:53;;;;;;;24.42;16.98;;;;;;;;;;5031516;28;92505;-73
2022/05/10 04:30:19;;;;;;;24.23;17.23;;;;;;;;;;5031123;28;93933;-73
2022/05/10 04:32:46;;;;;;;34.30;17.85;;;;;;;;;;5029261;28;96875;-74
2022/05/10 04:35:12;;;;;;;27.63;18.20;;;;;;;;;;5031632;28;92529;-74
2022/05/10 04:37:39;;;;;;;33.17;19.15;;;;;;;;;;5030614;28;94292;-73
2022/05/10 04:42:52;;;;;;;33.17;18.67;;;;;;;;;;5030811;28;94044;-73
2022/05/10 04:45:18;;;;;;;28.85;18.88;;;;;;;;;;5031293;28;94194;-73
2022/05/10 04:47:45;;;;;;;25.15;17.58;;;;;;;;;;5030853;28;92471;-73
2022/05/10 04:50:11;;;;;;;28.08;18.67;;;;;;;;;;5031056;28;94301;-73
2022/05/10 04:52:39;;;;;;;29.88;18.23;;;;;;;;;;5033576;27;94242;-73
2022/05/10 04:55:06;;;;;;;25.05;16.77;;;;;;;;;;5034751;28;92766;-74
2022/05/10 04:57:37;;;;;;;29.33;17.40;;;;;;;;;;5032237;27;95484;-73
2022/05/10 05:00:06;;;;;;;28.20;17.23;;;;;;;;;;5034641;28;94009;-73
2022/05/10 05:02:33;;;;;;;26.55;18.02;;;;;;;;;;5037789;27;93226;-73
2022/05/10 05:04:59;;;;;;;26.05;18.42;;;;;;;;;;5033604;28;93271;-73
2022/05/10 05:07:26;;;;;;;35.70;19.02;;;;;;;;;;5034035;28;93914;-73
2022/05/10 05:09:52;;;;;;;26.83;18.55;;;;;;;;;;5034306;28;94223;-73
2022/05/10 05:12:19;;;;;;;27.33;18.25;;;;;;;;;;5033691;28;94110;-74
2022/05/10 05:14:45;;;;;;;25.35;18.25;;;;;;;;;;5034554;28;91912;-73
2022/05/10 05:17:11;;;;;;;22.98;17.17;;;;;;;;;;5034397;28;93392;-73
2022/05/10 05:19:37;;;;;;;22.92;18.65;;;;;;;;;;5033253;27;93153;-73
2022/05/10 05:22:04;;;;;;;29.77;17.63;;;;;;;;;;5032594;28;94894;-74
2022/05/10 05:24:30;;;;;;;28.85;17.50;;;;;;;;;;5036076;28;95843;-72
2022/05/10 05:26:57;;;;;;;29.73;18.10;;;;;;;;;;5033555;28;93106;-72
2022/05/10 05:29:24;;;;;;;29.67;17.00;;;;;;;;;;5033947;28;94376;-73
2022/05/10 05:32:11;;;;;;;24.63;16.50;;;;;;;;;;5033374;28;93048;-73
2022/05/10 05:34:38;;;;;;;24.48;16.70;;;;;;;;;;5033691;28;93277;-73
2022/05/10 05:39:50;;;;;;;23.58;16.00;;;;;;;;;;5033691;28;93772;-73
2022/05/10 05:42:17;;;;;;;25.98;17.98;;;;;;;;;;5033714;28;92995;-73
2022/05/10 05:44:44;;;;;;;21.42;17.13;;;;;;;;;;5036018;28;93238;-73
2022/05/10 05:47:10;;;;;;;25.60;17.00;;;;;;;;;;5031005;28;95307;-73
2022/05/10 05:49:37;;;;;;;29.10;17.27;;;;;;;;;;5033274;28;96689;-73
2022/05/10 05:52:03;;;;;;;22.48;16.00;;;;;;;;;;5033685;28;94176;-73
2022/05/10 05:54:33;;;;;;;24.05;17.08;;;;;;;;;;5032733;28;92535;-73
2022/05/10 05:57:00;;;;;;;23.58;16.98;;;;;;;;;;5033739;28;96388;-73
2022/05/10 05:59:27;;;;;;;25.35;16.40;;;;;;;;;;5033153;28;94674;-73
2022/05/10 06:01:53;;;;;;;22.70;16.50;;;;;;;;;;5033092;28;92457;-73
2022/05/10 06:04:20;;;;;;;26.13;15.70;;;;;;;;;;5032140;28;93490;-73
2022/05/10 06:06:46;;;;;;;24.02;15.95;;;;;;;;;;5036129;28;93574;-73
2022/05/10 06:09:12;;;;;;;29.95;15.88;;;;;;;;;;5033124;28;92757;-73
2022/05/10 06:11:39;;;;;;;40.60;16.67;;;;;;;;;;5031351;28;96631;-73
2022/05/10 06:14:06;;;;;;;31.17;14.70;;;;;;;;;;5033081;28;93355;-73
2022/05/10 06:16:33;;;;;;;33.55;15.38;;;;;;;;;;5031982;28;93265;-73
2022/05/10 06:18:59;;;;;;;25.98;16.77;;;;;;;;;;5033196;28;94271;-73
2022/05/10 06:21:25;;;;;;;34.80;15.07;;;;;;;;;;5031988;28;92579;-73
2022/05/10 06:23:52;;;;;;;23.50;15.05;;;;;;;;;;5032857;28;93078;-73
2022/05/10 06:26:18;;;;;;;20.33;14.10;;;;;;;;;;5032851;28;93513;-73
2022/05/10 06:28:44;;;;;;;28.15;16.05;;;;;;;;;;5035760;28;91863;-73
2022/05/10 06:31:11;;;;;;;24.25;15.32;;;;;;;;;;5032669;28;93291;-73
2022/05/10 06:33:39;;;;;;;22.85;14.13;;;;;;;;;;5032417;28;92520;-73
2022/05/10 06:36:05;;;;;;;18.40;13.52;;;;;;;;;;5030963;28;94902;-73
2022/05/10 06:38:34;;;;;;;22.08;13.60;;;;;;;;;;5032292;28;93000;-73
2022/05/10 06:41:01;;;;;;;28.77;14.15;;;;;;;;;;5032989;28;93061;-73
2022/05/10 06:43:30;;;;;;;23.67;13.43;;;;;;;;;;5032161;28;93779;-73
2022/05/10 06:46:07;;;;;;;15.38;11.60;;;;;;;;;;5014792;28;96058;-74
2022/05/10 06:48:33;;;;;;;23.27;13.20;;;;;;;;;;5032795;28;92460;-73
2022/05/10 06:51:03;;;;;;;17.75;13.43;;;;;;;;;;5035006;28;93660;-73
2022/05/10 06:53:29;;;;;;;22.48;13.43;;;;;;;;;;5032379;28;91845;-73
2022/05/10 06:55:56;;;;;;;22.67;13.30;;;;;;;;;;5032488;28;92498;-73
2022/05/10 06:58:22;;;;;;;19.10;12.68;;;;;;;;;;5031661;28;94179;-73
2022/05/10 07:00:49;;;;;;;20.45;12.55;;;;;;;;;;5031131;28;94911;-74
2022/05/10 07:03:16;;;;;;;18.77;12.32;;;;;;;;;;5032653;28;96668;-73
2022/05/10 07:05:44;;;;;;;20.17;12.90;;;;;;;;;;5031512;28;94422;-74
2022/05/10 07:08:10;;;;;;;13.88;11.02;;;;;;;;;;5032431;28;92500;-73
2022/05/10 07:10:37;;;;;;;15.80;11.45;;;;;;;;;;5031625;28;94016;-74
2022/05/10 07:13:03;;;;;;;19.52;12.90;;;;;;;;;;5034661;27;93464;-73
2022/05/10 07:15:30;;;;;;;28.90;12.52;;;;;;;;;;5031873;27;93984;-73
2022/05/10 07:17:56;;;;;;;17.23;11.45;;;;;;;;;;5031427;28;93398;-73
2022/05/10 07:20:23;;;;;;;19.35;11.50;;;;;;;;;;5032099;28;92872;-74
2022/05/10 07:22:49;;;;;;;21.52;11.85;;;;;;;;;;5032259;28;94033;-73
2022/05/10 07:25:17;;;;;;;14.50;10.40;;;;;;;;;;5029368;28;96588;-73
2022/05/10 07:27:44;;;;;;;17.40;11.77;;;;;;;;;;5032000;27;92473;-73
2022/05/10 07:30:11;;;;;;;15.05;10.77;;;;;;;;;;5032290;28;94109;-74
2022/05/10 07:32:38;;;;;;;16.83;10.82;;;;;;;;;;5031507;28;94268;-74
2022/05/10 07:35:05;;;;;;;13.18;10.75;;;;;;;;;;5034759;27;92722;-74
2022/05/10 07:37:33;;;;;;;22.73;11.18;;;;;;;;;;5030697;28;93503;-74
2022/05/10 07:40:01;;;;;;;18.92;11.63;;;;;;;;;;5031319;28;92632;-73
2022/05/10 07:42:27;;;;;;;17.10;11.40;;;;;;;;;;5032247;28;94261;-74
2022/05/10 07:44:54;;;;;;;16.50;11.02;;;;;;;;;;5031455;27;92441;-74
2022/05/10 07:47:20;;;;;;;15.40;11.13;;;;;;;;;;5031320;27;92597;-74
2022/05/10 07:49:46;;;;;;;17.88;11.07;;;;;;;;;;5030517;28;94946;-73
2022/05/10 07:52:13;;;;;;;22.38;10.80;;;;;;;;;;5031881;28;94032;-74
2022/05/10 07:54:40;;;;;;;13.98;10.43;;;;;;;;;;5034024;28;92523;-74
2022/05/10 07:57:06;;;;;;;19.25;10.80;;;;;;;;;;5031784;28;94349;-74
2022/05/10 07:59:34;;;;;;;20.85;11.43;;;;;;;;;;5031257;28;93250;-74
2022/05/10 08:02:04;;;;;;;21.27;10.40;;;;;;;;;;5031754;28;93999;-74
2022/05/10 08:04:31;;;;;;;18.23;10.38;;;;;;;;;;5031221;28;94728;-74
2022/05/10 08:06:58;;;;;;;18.45;10.93;;;;;;;;;;5031272;28;91734;-74
2022/05/10 08:09:24;;;;;;;18.88;10.32;;;;;;;;;;5031262;28;92550;-74
2022/05/10 08:11:50;;;;;;;22.25;12.27;;;;;;;;;;5031395;28;94113;-74
2022/05/10 08:14:17;;;;;;;16.13;10.85;;;;;;;;;;5029135;28;94990;-74
2022/05/10 08:16:43;;;;;;;25.52;11.20;;;;;;;;;;5033831;28;95597;-74
2022/05/10 08:19:12;;;;;;;17.58;9.88;;;;;;;;;;5031241;28;92549;-74
2022/05/10 08:21:38;;;;;;;16.50;10.85;;;;;;;;;;5031168;28;93288;-74
2022/05/10 08:24:05;;;;;;;16.20;9.95;;;;;;;;;;5030819;28;94170;-74
2022/05/10 08:26:31;;;;;;;15.15;10.85;;;;;;;;;;5032534;28;93104;-74
2022/05/10 08:28:58;;;;;;;16.67;10.73;;;;;;;;;;5034251;28;93946;-74
2022/05/10 08:31:24;;;;;;;24.08;10.32;;;;;;;;;;5034981;28;93499;-74
2022/05/10 08:33:50;;;;;;;19.45;9.90;;;;;;;;;;5034634;28;92477;-74
2022/05/10 08:36:17;;;;;;;21.08;9.50;;;;;;;;;;5034959;28;93986;-74
2022/05/10 08:38:43;;;;;;;11.52;9.65;;;;;;;;;;5036538;28;96577;-74
2022/05/10 08:41:13;;;;;;;15.43;9.40;;;;;;;;;;5035593;28;96370;-75
2022/05/10 08:43:42;;;;;;;12.63;8.30;;;;;;;;;;5034370;28;93323;-74
2022/05/10 08:46:11;;;;;;;12.30;8.27;;;;;;;;;;5035066;28;92640;-75
2022/05/10 08:48:38;;;;;;;23.58;8.30;;;;;;;;;;5034777;28;93014;-75
2022/05/10 08:51:05;;;;;;;9.02;7.70;;;;;;;;;;5033849;28;93181;-75
2022/05/10 08:53:32;;;;;;;10.20;7.07;;;;;;;;;;5035060;28;92501;-75
2022/05/10 08:56:01;;;;;;;9.23;6.38;;;;;;;;;;5035424;28;93869;-75
2022/05/10 08:58:28;;;;;;;6.85;6.18;;;;;;;;;;5034943;28;94114;-75
2022/05/10 09:01:20;;;;;;;9.10;6.05;;;;;;;;;;5038306;28;92454;-75
2022/05/10 09:04:06;;;;;;;9.20;5.63;;;;;;;;;;5032545;28;96803;-75
2022/05/10 09:06:47;;;;;;;12.48;6.53;;;;;;;;;;5034928;28;92849;-75
2022/05/10 09:09:22;;;;;;;19.67;5.80;;;;;;;;;;5034831;28;93121;-74
2022/05/10 09:12:04;;;;;;;6.07;5.25;;;;;;;;;;5033758;28;92484;-74
2022/05/10 09:14:33;;;;;;;7.60;5.03;;;;;;;;;;5034278;27;92532;-74
2022/05/10 09:17:01;;;;;;;6.80;4.80;;;;;;;;;;5034637;28;92481;-74
2022/05/10 09:19:31;;;;;;;11.57;4.68;;;;;;;;;;5033249;28;93437;-74
2022/05/10 09:21:58;;;;;;;6.65;4.93;;;;;;;;;;5035062;28;92001;-74
2022/05/10 09:24:31;;;;;;;7.15;4.72;;;;;;;;;;5036540;28;93231;-75
2022/05/10 09:27:03;;;;;;;8.82;4.03;;;;;;;;;;5035178;28;93256;-75
2022/05/10 09:29:33;;;;;;;8.52;4.55;;;;;;;;;;5033020;28;95252;-75
2022/05/10 09:35:00;;;;;;;11.55;4.90;;;;;;;;;;5034711;28;93041;-75
2022/05/10 09:37:31;;;;;;;7.88;4.30;;;;;;;;;;5032515;28;93013;-75
2022/05/10 09:39:58;;;;;;;13.52;4.72;;;;;;;;;;5033574;28;94000;-75
2022/05/10 09:42:25;;;;;;;11.52;5.15;;;;;;;;;;5034266;28;92562;-75
2022/05/10 09:44:59;;;;;;;10.77;5.10;;;;;;;;;;5034275;28;92481;-75
2022/05/10 09:47:26;;;;;;;15.65;5.25;;;;;;;;;;5036713;28;92822;-75
2022/05/10 09:49:52;;;;;;;20.98;4.63;;;;;;;;;;5034179;28;92773;-75
2022/05/10 09:52:22;;;;;;;8.63;5.10;;;;;;;;;;5033788;28;93131;-75
2022/05/10 09:54:53;;;;;;;19.83;5.50;;;;;;;;;;5032786;28;94883;-75
2022/05/10 09:57:27;;;;;;;11.82;4.97;;;;;;;;;;5034379;28;96979;-75
2022/05/10 09:59:53;;;;;;;13.82;5.15;;;;;;;;;;5033451;28;94235;-75
2022/05/10 10:02:28;;;;;;;8.73;4.88;;;;;;;;;;5034364;28;92581;-75
2022/05/10 10:04:54;;;;;;;11.00;5.68;;;;;;;;;;5033947;28;93079;-75
2022/05/10 10:07:24;;;;;;;7.65;4.72;;;;;;;;;;5036086;28;93285;-75
2022/05/10 10:09:52;;;;;;;7.60;5.18;;;;;;;;;;5034337;28;94270;-75
2022/05/10 10:12:33;;;;;;;5.68;4.63;;;;;;;;;;5034014;28;92573;-75
2022/05/10 10:15:01;;;;;;;20.02;4.72;;;;;;;;;;5033481;28;92484;-75
2022/05/10 10:17:32;;;;;;;11.68;4.60;;;;;;;;;;5032906;28;93252;-75
2022/05/10 10:20:20;;;;;;;14.47;3.83;;;;;;;;;;5031353;28;95518;-75
2022/05/10 10:22:48;;;;;;;6.57;3.80;;;;;;;;;;5033724;28;92745;-75
2022/05/10 10:25:14;;;;;;;20.55;4.72;;;;;;;;;;5033725;28;94237;-75
2022/05/10 10:27:43;;;;;;;27.35;4.43;;;;;;;;;;5032908;28;94497;-75
2022/05/10 10:30:16;;;;;;;12.18;4.55;;;;;;;;;;5037006;27;92533;-75
2022/05/10 10:32:46;;;;;;;15.10;4.85;;;;;;;;;;5033575;28;94510;-75
2022/05/10 10:35:34;;;;;;;10.38;4.63;;;;;;;;;;5033488;28;92441;-75
2022/05/10 10:38:06;;;;;;;12.80;4.57;;;;;;;;;;5033847;28;93660;-75
2022/05/10 10:40:33;;;;;;;;;;;;;;;;;;5033625;28;94240;-75
2022/05/10 10:43:02;;;;;;;9.70;3.80;;;;;;;;;;5033296;27;118171;-75
2022/05/10 10:45:39;;;;;;;16.20;4.68;;;;;;;;;;5031697;28;95046;-75
2022/05/10 10:48:09;;;;;;;8.95;3.78;;;;;;;;;;5033480;28;94067;-75
2022/05/10 10:50:36;;;;;;;13.77;4.60;;;;;;;;;;5031969;27;92488;-75
2022/05/10 10:53:04;;;;;;;8.55;4.65;;;;;;;;;;5035846;28;93595;-75
2022/05/10 10:55:43;;;;;;;9.18;4.20;;;;;;;;;;5032917;28;92466;-75
2022/05/10 10:58:24;;;;;;;11.27;4.53;;;;;;;;;;5033019;28;92762;-74
2022/05/10 11:00:54;;;;;;;8.95;4.20;;;;;;;;;;5033168;28;93351;-74
2022/05/10 11:03:26;;;;;;;13.68;4.97;;;;;;;;;;5033379;28;92161;-75
2022/05/10 11:06:06;;;;;;;7.80;4.05;;;;;;;;;;5033389;28;92966;-75
2022/05/10 11:08:50;;;;;;;10.70;3.80;;;;;;;;;;5032843;28;94072;-75
2022/05/10 11:11:29;;;;;;;10.80;3.83;;;;;;;;;;5031064;28;94887;-75
2022/05/10 11:14:06;;;;;;;14.55;3.70;;;;;;;;;;5032861;28;95534;-75
2022/05/10 11:16:33;;;;;;;11.82;3.55;;;;;;;;;;5035765;28;94286;-75
2022/05/10 11:19:18;;;;;;;9.88;3.63;;;;;;;;;;5032220;28;93080;-75
2022/05/10 11:21:53;;;;;;;10.30;3.63;;;;;;;;;;5032542;28;94216;-74
2022/05/10 11:24:32;;;;;;;11.25;3.47;;;;;;;;;;5032347;28;92596;-75
2022/05/10 11:27:08;;;;;;;12.75;3.80;;;;;;;;;;5032453;28;93542;-75
2022/05/10 11:29:37;;;;;;;14.50;4.25;;;;;;;;;;5032893;28;93476;-75
2022/05/10 11:32:19;;;;;;;4.40;4.00;;;;;;;;;;5032273;28;92523;-75
2022/05/10 11:35:05;;;;;;;6.83;3.60;;;;;;;;;;5032173;28;93265;-75
2022/05/10 11:37:45;;;;;;;7.35;3.67;;;;;;;;;;5030292;28;96731;-75
2022/05/10 11:40:18;;;;;;;9.65;3.67;;;;;;;;;;5036016;28;92451;-75
2022/05/10 11:43:07;;;;;;;6.75;4.07;;;;;;;;;;5032333;28;94583;-75
2022/05/10 11:45:43;;;;;;;17.48;4.25;;;;;;;;;;5031494;28;92755;-75
2022/05/10 11:48:28;;;;;;;10.27;4.43;;;;;;;;;;5032757;28;94015;-75
2022/05/10 11:54:16;;;;;;;3.97;3.38;;;;;;;;;;5031999;28;92491;-75
2022/05/10 11:56:44;;;;;;;6.38;3.10;;;;;;;;;;5032186;28;93475;-75
2022/05/10 11:59:20;;;;;;;14.90;4.10;;;;;;;;;;5031774;28;94153;-75
2022/05/10 12:01:49;;;;;;;5.03;4.20;;;;;;;;;;5031444;28;92446;-75
2022/05/10 12:04:34;;;;;;;11.15;4.05;;;;;;;;;;5033840;28;94992;-75
2022/05/10 12:07:19;;;;;;;13.48;4.93;;;;;;;;;;5031862;28;92435;-75
2022/05/10 12:09:54;;;;;;;5.93;4.38;;;;;;;;;;5032323;28;93360;-75
2022/05/10 12:12:32;;;;;;;10.40;4.43;;;;;;;;;;5031978;28;93369;-75
2022/05/10 12:21:21;;;;;;;13.60;5.20;;;;;;;;;;5031207;28;94482;-74
2022/05/10 12:23:59;;;;;;;13.85;4.72;;;;;;;;;;5032134;28;91770;-75
2022/05/10 12:26:38;;;;;;;6.72;4.55;;;;;;;;;;5035160;28;93650;-74
2022/05/10 12:29:05;;;;;;;7.47;5.05;;;;;;;;;;5031382;28;92978;-74
2022/05/10 12:31:34;;;;;;;7.32;4.30;;;;;;;;;;5030222;28;94856;-75
2022/05/10 12:34:01;;;;;;;12.70;4.38;;;;;;;;;;5031555;28;93923;-74
2022/05/10 12:36:29;;;;;;;7.60;4.15;;;;;;;;;;5031646;28;92451;-75
2022/05/10 12:38:56;;;;;;;6.95;4.15;;;;;;;;;;5032245;28;94332;-74
2022/05/10 12:41:25;;;;;;;17.42;5.28;;;;;;;;;;5030848;28;93476;-75
2022/05/10 12:44:21;;;;;;;7.95;4.47;;;;;;;;;;5031711;28;92416;-75
2022/05/10 12:46:57;;;;;;;18.92;5.20;;;;;;;;;;5013679;28;94073;-75
2022/05/10 12:49:39;;;;;;;18.42;5.45;;;;;;;;;;5033462;28;92589;-75
2022/05/10 12:52:13;;;;;;;;;;;;;;;;;;5031926;28;93268;-75
2022/05/10 12:54:42;;;;;;;12.35;5.10;;;;;;;;;;5031736;28;122118;-76
2022/05/10 12:57:27;;;;;;;16.77;5.72;;;;;;;;;;5029245;28;95042;-75
2022/05/10 13:00:00;;;;;;;7.65;5.22;;;;;;;;;;5031538;28;96277;-75
2022/05/10 13:02:28;;;;;;;18.55;5.22;;;;;;;;;;5030255;28;94096;-75
2022/05/10 13:04:58;;;;;;;11.65;5.05;;;;;;;;;;5031680;28;92532;-75
2022/05/10 13:07:40;;;;;;;11.52;4.80;;;;;;;;;;5031401;28;93316;-75
2022/05/10 13:10:08;;;;;;;10.30;6.38;;;;;;;;;;5031193;28;94168;-75
2022/05/10 13:12:37;;;;;;;13.65;6.40;;;;;;;;;;5035646;27;92579;-75
2022/05/10 13:15:15;;;;;;;9.18;5.90;;;;;;;;;;5035194;28;93762;-75
2022/05/10 13:17:42;;;;;;;7.90;4.22;;;;;;;;;;5034057;28;92484;-75
2022/05/10 13:20:12;;;;;;;7.63;3.22;;;;;;;;;;5034939;28;94007;-75
2022/05/10 13:22:47;;;;;;;9.55;3.85;;;;;;;;;;5032679;27;96825;-75
2022/05/10 13:25:14;;;;;;;14.48;4.15;;;;;;;;;;5033402;27;92487;-75
2022/05/10 13:27:42;;;;;;;11.38;5.00;;;;;;;;;;5034315;27;92944;-75
2022/05/10 13:30:08;;;;;;;15.43;4.10;;;;;;;;;;5034719;28;94184;-75
2022/05/10 13:32:44;;;;;;;11.93;3.30;;;;;;;;;;5033392;27;93052;-75
2022/05/10 13:35:22;;;;;;;9.43;3.20;;;;;;;;;;5037110;28;92916;-75
2022/05/10 13:37:54;;;;;;;9.13;3.17;;;;;;;;;;5034015;28;93391;-75
2022/05/10 13:40:23;;;;;;;5.20;2.30;;;;;;;;;;5034929;28;93064;-74
2022/05/10 13:42:50;;;;;;;10.60;2.67;;;;;;;;;;5034004;28;93931;-74
2022/05/10 13:45:24;;;;;;;10.35;3.25;;;;;;;;;;5033777;28;93094;-74
2022/05/10 13:47:59;;;;;;;5.13;2.40;;;;;;;;;;5032956;28;95921;-75
2022/05/10 13:50:28;;;;;;;7.25;2.85;;;;;;;;;;5033911;28;93832;-74
2022/05/10 13:53:00;;;;;;;8.40;2.83;;;;;;;;;;5033383;28;92465;-75
2022/05/10 13:55:27;;;;;;;9.00;3.08;;;;;;;;;;5033384;28;93027;-74
2022/05/10 13:57:59;;;;;;;13.68;2.83;;;;;;;;;;5036801;28;93601;-75
2022/05/10 14:00:30;;;;;;;10.55;2.88;;;;;;;;;;5033664;28;93931;-74
2022/05/10 14:02:57;;;;;;;6.45;3.28;;;;;;;;;;5033899;28;94036;-75
2022/05/10 14:05:24;;;;;;;4.07;2.70;;;;;;;;;;5034438;28;91768;-74
2022/05/10 14:07:55;;;;;;;7.30;3.67;;;;;;;;;;5033603;28;93431;-74
2022/05/10 14:10:21;;;;;;;11.40;3.00;;;;;;;;;;5033659;28;94323;-75
2022/05/10 14:12:50;;;;;;;7.75;2.70;;;;;;;;;;5031883;28;94846;-74
2022/05/10 14:15:20;;;;;;;8.27;2.80;;;;;;;;;;5033423;28;95452;-74
2022/05/10 14:17:52;;;;;;;8.63;2.90;;;;;;;;;;5033669;28;94248;-74
2022/05/10 14:20:24;;;;;;;10.13;2.65;;;;;;;;;;5036223;28;92490;-74
2022/05/10 14:22:55;;;;;;;5.82;2.47;;;;;;;;;;5033858;28;93166;-74
2022/05/10 14:25:26;;;;;;;5.93;2.42;;;;;;;;;;5032401;27;92580;-74
2022/05/10 14:28:16;;;;;;;4.93;2.08;;;;;;;;;;5032548;28;93128;-74
2022/05/10 14:30:46;;;;;;;15.48;2.42;;;;;;;;;;5033862;28;93699;-74
2022/05/10 14:33:24;;;;;;;10.15;2.80;;;;;;;;;;5033707;28;92617;-74
2022/05/10 14:35:52;;;;;;;3.55;1.70;;;;;;;;;;5032485;28;93068;-74
2022/05/10 14:38:24;;;;;;;5.88;2.20;;;;;;;;;;5031476;28;95531;-74
2022/05/10 14:40:51;;;;;;;6.32;2.00;;;;;;;;;;5035705;28;93047;-74
2022/05/10 14:43:21;;;;;;;7.43;1.95;;;;;;;;;;5033280;28;94133;-74
2022/05/10 14:45:52;;;;;;;5.28;2.03;;;;;;;;;;5033245;28;92701;-73
2022/05/10 14:48:37;;;;;;;7.78;1.85;;;;;;;;;;5032179;28;92867;-74
2022/05/10 14:51:07;;;;;;;7.90;1.73;;;;;;;;;;5033197;28;94096;-74
2022/05/10 14:53:37;;;;;;;7.82;1.60;;;;;;;;;;5033311;28;93960;-74
2022/05/10 14:56:04;;;;;;;5.03;1.67;;;;;;;;;;5032310;28;92870;-73
2022/05/10 14:58:41;;;;;;;4.90;1.63;;;;;;;;;;5032875;28;94136;-74
2022/05/10 15:01:15;;;;;;;4.82;1.42;;;;;;;;;;5032913;28;92466;-74
2022/05/10 15:03:57;;;;;;;9.30;1.75;;;;;;;;;;5033255;28;95288;-74